Terminal Aerodrome Forecast
Issued by NWS North Platte, NE

Home | Current Version | Previous Version | Text Only | Print | Product List | Glossary On
Versions: 1 2 3 4 5 6 7 8 9 10 11 12 13 14 15 16 17 18 19
688
FTUS43 KLBF 252336
TAFVTN
TAF
KVTN 252336Z 2600/2624 36013G19KT P6SM OVC015
     FM260500 34014G21KT P6SM OVC015
     FM261600 33017G25KT P6SM BKN015
     FM261800 33016G24KT P6SM BKN025
     FM261900 33015G23KT P6SM SCT040
     FM262300 34011G17KT P6SM FEW200=

USA.gov is the U.S. government's official web portal to all federal, state and local government web resources and services.